sensor_id;sensor_type;location;lat;lon;timestamp;pressure;altitude;pressure_sealevel;temperature;humidity
61136;BME280;47021;51.340;12.432;2023-02-20T00:00:32;100871.97;;;9.77;61.27
61136;BME280;47021;51.340;12.432;2023-02-20T00:03:04;100870.56;;;9.47;62.08
61136;BME280;47021;51.340;12.432;2023-02-20T00:05:30;100874.25;;;9.17;62.74
61136;BME280;47021;51.340;12.432;2023-02-20T00:07:56;100872.19;;;9.22;63.00
61136;BME280;47021;51.340;12.432;2023-02-20T00:10:21;100879.00;;;9.38;62.47
61136;BME280;47021;51.340;12.432;2023-02-20T00:12:47;100876.81;;;9.32;62.63
61136;BME280;47021;51.340;12.432;2023-02-20T00:15:13;100869.19;;;9.29;62.87
61136;BME280;47021;51.340;12.432;2023-02-20T00:17:45;100869.47;;;9.24;63.56
61136;BME280;47021;51.340;12.432;2023-02-20T00:20:13;100865.13;;;9.24;63.77
61136;BME280;47021;51.340;12.432;2023-02-20T00:22:50;100867.31;;;9.31;63.35
61136;BME280;47021;51.340;12.432;2023-02-20T00:25:16;100869.53;;;9.37;63.66
61136;BME280;47021;51.340;12.432;2023-02-20T00:27:42;100868.28;;;9.42;63.18
61136;BME280;47021;51.340;12.432;2023-02-20T00:33:05;100865.81;;;9.53;63.36
61136;BME280;47021;51.340;12.432;2023-02-20T00:35:42;100863.91;;;9.43;63.67
61136;BME280;47021;51.340;12.432;2023-02-20T00:38:09;100858.72;;;9.55;63.24
61136;BME280;47021;51.340;12.432;2023-02-20T00:43:19;100842.53;;;9.50;63.76
61136;BME280;47021;51.340;12.432;2023-02-20T00:48:28;100832.44;;;9.46;63.51
61136;BME280;47021;51.340;12.432;2023-02-20T00:51:12;100832.81;;;9.40;64.11
61136;BME280;47021;51.340;12.432;2023-02-20T00:53:38;100816.13;;;9.42;63.89
61136;BME280;47021;51.340;12.432;2023-02-20T00:56:16;100821.59;;;9.39;63.88
61136;BME280;47021;51.340;12.432;2023-02-20T00:58:48;100815.84;;;9.47;63.80
61136;BME280;47021;51.340;12.432;2023-02-20T01:03:34;100817.06;;;8.89;66.15
61136;BME280;47021;51.340;12.432;2023-02-20T01:05:59;100808.75;;;9.23;64.87
61136;BME280;47021;51.340;12.432;2023-02-20T01:08:25;100808.84;;;9.35;64.71
61136;BME280;47021;51.340;12.432;2023-02-20T01:10:50;100818.03;;;9.40;64.86
61136;BME280;47021;51.340;12.432;2023-02-20T01:15:59;100812.09;;;9.38;64.99
61136;BME280;47021;51.340;12.432;2023-02-20T01:18:36;100808.31;;;9.42;64.79
61136;BME280;47021;51.340;12.432;2023-02-20T01:21:03;100816.38;;;9.39;65.07
61136;BME280;47021;51.340;12.432;2023-02-20T01:23:30;100815.72;;;9.36;65.47
61136;BME280;47021;51.340;12.432;2023-02-20T01:25:56;100811.13;;;9.27;65.58
61136;BME280;47021;51.340;12.432;2023-02-20T01:28:35;100809.09;;;9.44;65.12
61136;BME280;47021;51.340;12.432;2023-02-20T01:31:01;100812.28;;;9.60;65.05
61136;BME280;47021;51.340;12.432;2023-02-20T01:33:41;100833.97;;;9.23;66.23
61136;BME280;47021;51.340;12.432;2023-02-20T01:36:09;100827.25;;;9.06;67.03
61136;BME280;47021;51.340;12.432;2023-02-20T01:38:34;100826.75;;;9.14;66.82
61136;BME280;47021;51.340;12.432;2023-02-20T01:41:00;100820.53;;;9.42;66.28
61136;BME280;47021;51.340;12.432;2023-02-20T01:43:27;100806.03;;;9.63;65.76
61136;BME280;47021;51.340;12.432;2023-02-20T01:45:52;100811.69;;;9.57;66.01
61136;BME280;47021;51.340;12.432;2023-02-20T01:48:22;100820.13;;;9.60;65.89
61136;BME280;47021;51.340;12.432;2023-02-20T01:50:48;100811.16;;;9.89;64.89
61136;BME280;47021;51.340;12.432;2023-02-20T01:53:17;100816.13;;;9.92;64.54
61136;BME280;47021;51.340;12.432;2023-02-20T01:58:39;100798.75;;;9.55;65.98
61136;BME280;47021;51.340;12.432;2023-02-20T02:01:06;100791.31;;;9.74;65.65
61136;BME280;47021;51.340;12.432;2023-02-20T02:03:38;100778.28;;;9.87;64.92
61136;BME280;47021;51.340;12.432;2023-02-20T02:06:06;100771.25;;;10.00;64.74
61136;BME280;47021;51.340;12.432;2023-02-20T02:08:32;100772.84;;;10.15;64.20
61136;BME280;47021;51.340;12.432;2023-02-20T02:13:23;100763.06;;;10.30;63.85
61136;BME280;47021;51.340;12.432;2023-02-20T02:18:43;100760.78;;;10.25;64.40
61136;BME280;47021;51.340;12.432;2023-02-20T02:40:25;100726.88;;;10.25;64.23
61136;BME280;47021;51.340;12.432;2023-02-20T02:48:40;100728.25;;;10.18;65.06
61136;BME280;47021;51.340;12.432;2023-02-20T02:56:35;100718.19;;;10.25;65.14
61136;BME280;47021;51.340;12.432;2023-02-20T03:01:49;100703.88;;;10.30;65.27
61136;BME280;47021;51.340;12.432;2023-02-20T03:07:05;100709.47;;;10.37;65.05
61136;BME280;47021;51.340;12.432;2023-02-20T03:09:33;100712.91;;;10.14;66.31
61136;BME280;47021;51.340;12.432;2023-02-20T03:12:06;100719.22;;;10.35;65.58
61136;BME280;47021;51.340;12.432;2023-02-20T03:17:20;100708.19;;;9.82;67.30
61136;BME280;47021;51.340;12.432;2023-02-20T03:22:24;100686.72;;;10.15;66.65
61136;BME280;47021;51.340;12.432;2023-02-20T03:24:53;100691.41;;;10.10;66.37
61136;BME280;47021;51.340;12.432;2023-02-20T03:27:41;100687.72;;;9.89;67.48
61136;BME280;47021;51.340;12.432;2023-02-20T03:30:20;100686.84;;;10.01;67.28
61136;BME280;47021;51.340;12.432;2023-02-20T03:33:03;100688.00;;;9.97;67.23
61136;BME280;47021;51.340;12.432;2023-02-20T03:35:30;100688.66;;;9.88;67.41
61136;BME280;47021;51.340;12.432;2023-02-20T03:37:56;100681.25;;;9.94;66.80
61136;BME280;47021;51.340;12.432;2023-02-20T03:40:23;100673.13;;;9.86;67.24
61136;BME280;47021;51.340;12.432;2023-02-20T03:42:50;100669.66;;;9.99;66.72
61136;BME280;47021;51.340;12.432;2023-02-20T03:45:19;100676.50;;;9.76;67.03
61136;BME280;47021;51.340;12.432;2023-02-20T03:47:46;100675.59;;;9.52;66.96
61136;BME280;47021;51.340;12.432;2023-02-20T03:50:13;100680.50;;;9.56;66.81
61136;BME280;47021;51.340;12.432;2023-02-20T03:52:38;100688.63;;;10.01;65.57
61136;BME280;47021;51.340;12.432;2023-02-20T03:55:21;100693.47;;;9.81;65.69
61136;BME280;47021;51.340;12.432;2023-02-20T03:57:49;100711.44;;;9.61;66.23
61136;BME280;47021;51.340;12.432;2023-02-20T04:05:43;100703.63;;;9.61;65.57
61136;BME280;47021;51.340;12.432;2023-02-20T04:08:27;100707.72;;;9.52;65.29
61136;BME280;47021;51.340;12.432;2023-02-20T04:10:59;100715.06;;;9.83;64.02
61136;BME280;47021;51.340;12.432;2023-02-20T04:13:34;100705.72;;;9.56;65.24
61136;BME280;47021;51.340;12.432;2023-02-20T04:16:11;100713.72;;;9.78;64.46
61136;BME280;47021;51.340;12.432;2023-02-20T04:18:38;100694.31;;;10.18;63.06
61136;BME280;47021;51.340;12.432;2023-02-20T04:21:04;100699.09;;;9.88;63.83
61136;BME280;47021;51.340;12.432;2023-02-20T04:23:33;100689.00;;;10.20;63.11
61136;BME280;47021;51.340;12.432;2023-02-20T04:26:16;100699.06;;;9.52;63.58
61136;BME280;47021;51.340;12.432;2023-02-20T04:31:26;100685.06;;;9.65;64.41
61136;BME280;47021;51.340;12.432;2023-02-20T04:33:51;100674.63;;;10.14;62.12
61136;BME280;47021;51.340;12.432;2023-02-20T04:36:34;100675.53;;;10.13;62.34
61136;BME280;47021;51.340;12.432;2023-02-20T04:38:59;100673.00;;;10.59;61.74
61136;BME280;47021;51.340;12.432;2023-02-20T04:41:27;100677.22;;;10.38;62.43
61136;BME280;47021;51.340;12.432;2023-02-20T04:43:52;100669.06;;;10.88;60.97
61136;BME280;47021;51.340;12.432;2023-02-20T04:46:17;100661.63;;;10.60;61.94
61136;BME280;47021;51.340;12.432;2023-02-20T04:48:43;100665.16;;;10.48;62.32
61136;BME280;47021;51.340;12.432;2023-02-20T04:51:10;100661.56;;;10.14;63.26
61136;BME280;47021;51.340;12.432;2023-02-20T04:53:41;100663.50;;;10.47;63.23
61136;BME280;47021;51.340;12.432;2023-02-20T04:56:06;100655.88;;;10.44;63.01
61136;BME280;47021;51.340;12.432;2023-02-20T04:58:39;100654.28;;;10.65;62.85
61136;BME280;47021;51.340;12.432;2023-02-20T05:01:04;100649.19;;;10.29;63.59
61136;BME280;47021;51.340;12.432;2023-02-20T05:03:30;100642.88;;;10.08;64.96
61136;BME280;47021;51.340;12.432;2023-02-20T05:05:57;100628.56;;;10.13;64.86
61136;BME280;47021;51.340;12.432;2023-02-20T05:08:23;100628.94;;;10.43;64.30
61136;BME280;47021;51.340;12.432;2023-02-20T05:11:01;100622.94;;;10.54;63.79
61136;BME280;47021;51.340;12.432;2023-02-20T05:13:26;100616.53;;;10.23;64.82
61136;BME280;47021;51.340;12.432;2023-02-20T05:15:51;100625.19;;;10.00;65.68
61136;BME280;47021;51.340;12.432;2023-02-20T05:18:32;100623.34;;;10.13;65.51
61136;BME280;47021;51.340;12.432;2023-02-20T05:20:57;100613.34;;;10.07;65.80
61136;BME280;47021;51.340;12.432;2023-02-20T05:23:24;100609.09;;;10.30;64.74
61136;BME280;47021;51.340;12.432;2023-02-20T05:25:50;100593.97;;;10.22;65.23
61136;BME280;47021;51.340;12.432;2023-02-20T05:33:43;100591.16;;;10.25;63.80
61136;BME280;47021;51.340;12.432;2023-02-20T05:41:35;100601.00;;;10.22;63.70
61136;BME280;47021;51.340;12.432;2023-02-20T05:44:02;100591.75;;;9.81;64.26
61136;BME280;47021;51.340;12.432;2023-02-20T05:46:27;100627.09;;;9.85;64.13
61136;BME280;47021;51.340;12.432;2023-02-20T05:48:53;100626.47;;;9.58;64.70
61136;BME280;47021;51.340;12.432;2023-02-20T05:51:23;100604.13;;;9.90;63.94
61136;BME280;47021;51.340;12.432;2023-02-20T05:53:49;100585.59;;;10.30;62.38
61136;BME280;47021;51.340;12.432;2023-02-20T05:56:14;100590.59;;;10.33;61.68
61136;BME280;47021;51.340;12.432;2023-02-20T05:58:40;100590.84;;;10.41;61.32
61136;BME280;47021;51.340;12.432;2023-02-20T06:01:06;100587.31;;;10.53;61.06
61136;BME280;47021;51.340;12.432;2023-02-20T06:03:31;100585.38;;;9.62;63.33
61136;BME280;47021;51.340;12.432;2023-02-20T06:05:59;100586.41;;;10.19;61.95
61136;BME280;47021;51.340;12.432;2023-02-20T06:08:25;100582.34;;;9.91;62.28
61136;BME280;47021;51.340;12.432;2023-02-20T06:10:51;100563.69;;;10.54;60.54
61136;BME280;47021;51.340;12.432;2023-02-20T06:13:34;100555.25;;;10.40;60.49
61136;BME280;47021;51.340;12.432;2023-02-20T06:16:02;100555.19;;;10.18;61.23
61136;BME280;47021;51.340;12.432;2023-02-20T06:21:22;100548.56;;;9.90;61.00
61136;BME280;47021;51.340;12.432;2023-02-20T06:26:31;100538.44;;;9.85;61.05
61136;BME280;47021;51.340;12.432;2023-02-20T06:31:52;100534.44;;;9.92;60.86
61136;BME280;47021;51.340;12.432;2023-02-20T06:37:01;100518.78;;;9.92;60.36
61136;BME280;47021;51.340;12.432;2023-02-20T06:42:24;100527.13;;;10.32;59.01
61136;BME280;47021;51.340;12.432;2023-02-20T06:44:51;100526.88;;;10.24;58.74
61136;BME280;47021;51.340;12.432;2023-02-20T06:47:17;100525.06;;;10.25;58.68
61136;BME280;47021;51.340;12.432;2023-02-20T06:49:56;100526.75;;;10.37;58.69
61136;BME280;47021;51.340;12.432;2023-02-20T06:54:53;100538.97;;;10.25;58.83
61136;BME280;47021;51.340;12.432;2023-02-20T06:57:25;100544.44;;;9.99;59.20
61136;BME280;47021;51.340;12.432;2023-02-20T06:59:50;100528.44;;;10.38;58.48
61136;BME280;47021;51.340;12.432;2023-02-20T07:02:16;100523.44;;;10.24;58.36
61136;BME280;47021;51.340;12.432;2023-02-20T07:04:46;100527.03;;;10.67;57.18
61136;BME280;47021;51.340;12.432;2023-02-20T07:07:18;100516.81;;;10.64;57.10
61136;BME280;47021;51.340;12.432;2023-02-20T07:09:44;100527.38;;;10.40;57.94
61136;BME280;47021;51.340;12.432;2023-02-20T07:12:22;100525.81;;;10.38;57.86
61136;BME280;47021;51.340;12.432;2023-02-20T07:14:49;100524.88;;;10.39;57.68
61136;BME280;47021;51.340;12.432;2023-02-20T07:17:15;100544.28;;;9.89;58.89
61136;BME280;47021;51.340;12.432;2023-02-20T07:19:48;100544.16;;;9.90;59.50
61136;BME280;47021;51.340;12.432;2023-02-20T07:22:14;100532.41;;;10.66;57.17
61136;BME280;47021;51.340;12.432;2023-02-20T07:24:39;100529.91;;;10.18;58.65
61136;BME280;47021;51.340;12.432;2023-02-20T07:27:06;100514.22;;;10.53;57.89
61136;BME280;47021;51.340;12.432;2023-02-20T07:29:32;100511.44;;;10.21;58.62
61136;BME280;47021;51.340;12.432;2023-02-20T07:34:41;100512.06;;;10.91;56.65
61136;BME280;47021;51.340;12.432;2023-02-20T07:37:06;100488.81;;;10.99;56.34
61136;BME280;47021;51.340;12.432;2023-02-20T07:42:28;100505.88;;;11.03;56.55
61136;BME280;47021;51.340;12.432;2023-02-20T07:44:59;100496.72;;;11.20;56.38
61136;BME280;47021;51.340;12.432;2023-02-20T07:47:30;100512.25;;;11.32;56.04
61136;BME280;47021;51.340;12.432;2023-02-20T07:50:07;100491.66;;;10.85;56.72
61136;BME280;47021;51.340;12.432;2023-02-20T07:52:42;100470.19;;;11.35;55.58
61136;BME280;47021;51.340;12.432;2023-02-20T08:01:03;100455.19;;;11.38;55.75
61136;BME280;47021;51.340;12.432;2023-02-20T08:03:40;100438.66;;;11.80;54.56
61136;BME280;47021;51.340;12.432;2023-02-20T08:06:18;100438.44;;;11.40;55.00
61136;BME280;47021;51.340;12.432;2023-02-20T08:09:04;100440.66;;;11.45;55.41
61136;BME280;47021;51.340;12.432;2023-02-20T08:11:35;100437.22;;;11.44;55.58
61136;BME280;47021;51.340;12.432;2023-02-20T08:16:45;100437.81;;;11.05;56.27
61136;BME280;47021;51.340;12.432;2023-02-20T08:19:23;100442.34;;;11.34;55.95
61136;BME280;47021;51.340;12.432;2023-02-20T08:21:50;100441.47;;;11.24;55.90
61136;BME280;47021;51.340;12.432;2023-02-20T08:24:28;100441.50;;;11.45;55.02
61136;BME280;47021;51.340;12.432;2023-02-20T08:26:56;100417.91;;;11.35;55.62
61136;BME280;47021;51.340;12.432;2023-02-20T08:29:23;100420.50;;;11.88;54.34
61136;BME280;47021;51.340;12.432;2023-02-20T08:31:49;100410.06;;;11.56;55.04
61136;BME280;47021;51.340;12.432;2023-02-20T08:34:14;100416.25;;;11.23;55.97
61136;BME280;47021;51.340;12.432;2023-02-20T08:36:42;100415.16;;;11.69;54.89
61136;BME280;47021;51.340;12.432;2023-02-20T08:39:07;100420.69;;;11.23;55.59
61136;BME280;47021;51.340;12.432;2023-02-20T08:41:33;100428.53;;;11.23;56.03
61136;BME280;47021;51.340;12.432;2023-02-20T08:43:58;100429.59;;;11.20;56.36
61136;BME280;47021;51.340;12.432;2023-02-20T08:46:23;100412.09;;;11.32;56.35
61136;BME280;47021;51.340;12.432;2023-02-20T08:48:49;100420.97;;;11.72;55.44
61136;BME280;47021;51.340;12.432;2023-02-20T08:51:21;100427.22;;;11.81;55.05
61136;BME280;47021;51.340;12.432;2023-02-20T08:53:52;100415.50;;;11.75;55.04
61136;BME280;47021;51.340;12.432;2023-02-20T08:59:07;100416.88;;;11.79;54.76
61136;BME280;47021;51.340;12.432;2023-02-20T09:01:32;100430.59;;;11.72;55.16
61136;BME280;47021;51.340;12.432;2023-02-20T09:03:57;100419.50;;;12.00;54.49
61136;BME280;47021;51.340;12.432;2023-02-20T09:06:24;100427.09;;;12.33;54.00
61136;BME280;47021;51.340;12.432;2023-02-20T09:09:01;100430.13;;;12.08;54.55
61136;BME280;47021;51.340;12.432;2023-02-20T09:11:28;100412.28;;;12.53;53.54
61136;BME280;47021;51.340;12.432;2023-02-20T09:13:56;100424.34;;;12.74;52.76
61136;BME280;47021;51.340;12.432;2023-02-20T09:16:27;100428.06;;;12.72;53.01
61136;BME280;47021;51.340;12.432;2023-02-20T09:19:02;100419.66;;;12.68;52.57
61136;BME280;47021;51.340;12.432;2023-02-20T09:21:35;100423.66;;;12.72;52.63
61136;BME280;47021;51.340;12.432;2023-02-20T09:24:07;100413.94;;;12.54;52.91
61136;BME280;47021;51.340;12.432;2023-02-20T09:26:34;100403.94;;;12.68;52.30
61136;BME280;47021;51.340;12.432;2023-02-20T09:29:13;100415.66;;;12.64;53.00
61136;BME280;47021;51.340;12.432;2023-02-20T09:31:39;100412.22;;;11.83;55.09
61136;BME280;47021;51.340;12.432;2023-02-20T09:36:49;100413.19;;;12.72;52.73
61136;BME280;47021;51.340;12.432;2023-02-20T09:39:15;100407.16;;;12.91;51.48
61136;BME280;47021;51.340;12.432;2023-02-20T09:44:42;100408.50;;;12.36;53.33
61136;BME280;47021;51.340;12.432;2023-02-20T09:52:40;100401.47;;;12.67;52.28
61136;BME280;47021;51.340;12.432;2023-02-20T09:55:13;100410.75;;;13.00;52.21
61136;BME280;47021;51.340;12.432;2023-02-20T09:57:42;100401.16;;;13.10;51.33
61136;BME280;47021;51.340;12.432;2023-02-20T10:00:12;100403.16;;;12.87;52.20
61136;BME280;47021;51.340;12.432;2023-02-20T10:02:41;100400.63;;;12.66;51.97
61136;BME280;47021;51.340;12.432;2023-02-20T10:05:27;100399.56;;;12.88;51.29
61136;BME280;47021;51.340;12.432;2023-02-20T10:07:54;100364.50;;;12.70;51.64
61136;BME280;47021;51.340;12.432;2023-02-20T10:10:24;100373.34;;;12.98;51.46
61136;BME280;47021;51.340;12.432;2023-02-20T10:23:51;100354.75;;;13.68;50.39
61136;BME280;47021;51.340;12.432;2023-02-20T10:26:27;100337.47;;;13.65;49.59
61136;BME280;47021;51.340;12.432;2023-02-20T10:28:53;100330.94;;;13.79;49.46
61136;BME280;47021;51.340;12.432;2023-02-20T10:34:21;100302.00;;;13.61;48.60
61136;BME280;47021;51.340;12.432;2023-02-20T10:39:31;100297.28;;;14.01;48.12
61136;BME280;47021;51.340;12.432;2023-02-20T10:42:12;100274.69;;;13.54;49.09
61136;BME280;47021;51.340;12.432;2023-02-20T10:44:40;100258.75;;;13.65;48.23
61136;BME280;47021;51.340;12.432;2023-02-20T10:47:23;100278.03;;;14.10;47.58
61136;BME280;47021;51.340;12.432;2023-02-20T10:57:56;100265.78;;;14.91;46.23
61136;BME280;47021;51.340;12.432;2023-02-20T11:00:32;100233.00;;;14.33;46.98
61136;BME280;47021;51.340;12.432;2023-02-20T11:03:03;100250.81;;;14.56;46.79
61136;BME280;47021;51.340;12.432;2023-02-20T11:05:42;100229.44;;;14.69;46.30
61136;BME280;47021;51.340;12.432;2023-02-20T11:08:10;100232.22;;;14.23;46.77
61136;BME280;47021;51.340;12.432;2023-02-20T11:13:22;100235.78;;;14.49;46.38
61136;BME280;47021;51.340;12.432;2023-02-20T11:15:59;100243.69;;;14.31;47.04
61136;BME280;47021;51.340;12.432;2023-02-20T11:18:39;100235.97;;;14.47;47.07
61136;BME280;47021;51.340;12.432;2023-02-20T11:21:44;100229.97;;;14.55;46.57
61136;BME280;47021;51.340;12.432;2023-02-20T11:24:30;100242.84;;;14.31;47.40
61136;BME280;47021;51.340;12.432;2023-02-20T11:27:03;100225.00;;;14.87;45.90
61136;BME280;47021;51.340;12.432;2023-02-20T11:35:15;100202.41;;;14.59;46.85
61136;BME280;47021;51.340;12.432;2023-02-20T11:37:45;100199.38;;;14.71;46.20
61136;BME280;47021;51.340;12.432;2023-02-20T11:42:53;100172.78;;;14.74;46.53
61136;BME280;47021;51.340;12.432;2023-02-20T11:45:31;100176.25;;;14.75;46.13
61136;BME280;47021;51.340;12.432;2023-02-20T11:48:08;100159.00;;;14.55;46.60
61136;BME280;47021;51.340;12.432;2023-02-20T11:56:20;100148.84;;;15.03;46.02
61136;BME280;47021;51.340;12.432;2023-02-20T11:59:03;100154.16;;;15.11;45.60
61136;BME280;47021;51.340;12.432;2023-02-20T12:04:23;100150.38;;;15.39;44.95
61136;BME280;47021;51.340;12.432;2023-02-20T12:09:34;100167.69;;;14.73;46.41
61136;BME280;47021;51.340;12.432;2023-02-20T12:17:34;100138.56;;;15.18;46.05
61136;BME280;47021;51.340;12.432;2023-02-20T12:20:18;100126.00;;;15.71;45.05
61136;BME280;47021;51.340;12.432;2023-02-20T12:25:32;100147.81;;;14.96;46.49
61136;BME280;47021;51.340;12.432;2023-02-20T12:36:47;100111.97;;;15.21;46.19
61136;BME280;47021;51.340;12.432;2023-02-20T12:47:34;100115.66;;;15.70;46.16
61136;BME280;47021;51.340;12.432;2023-02-20T13:04:16;100099.09;;;16.17;46.82
61136;BME280;47021;51.340;12.432;2023-02-20T13:09:44;100110.13;;;16.21;47.33
61136;BME280;47021;51.340;12.432;2023-02-20T13:12:16;100100.25;;;16.23;47.36
61136;BME280;47021;51.340;12.432;2023-02-20T13:14:54;100090.88;;;16.45;46.90
61136;BME280;47021;51.340;12.432;2023-02-20T13:20:14;100091.88;;;16.19;47.50
61136;BME280;47021;51.340;12.432;2023-02-20T13:22:43;100092.31;;;15.91;48.23
61136;BME280;47021;51.340;12.432;2023-02-20T13:28:01;100096.97;;;16.77;46.75
61136;BME280;47021;51.340;12.432;2023-02-20T13:30:39;100097.59;;;16.87;46.62
61136;BME280;47021;51.340;12.432;2023-02-20T13:35:51;100092.34;;;16.47;47.82
61136;BME280;47021;51.340;12.432;2023-02-20T13:38:20;100053.25;;;16.91;46.51
61136;BME280;47021;51.340;12.432;2023-02-20T13:43:36;100085.75;;;15.95;48.95
61136;BME280;47021;51.340;12.432;2023-02-20T13:53:43;100043.59;;;16.19;48.38
61136;BME280;47021;51.340;12.432;2023-02-20T13:56:18;100059.94;;;16.22;48.72
61136;BME280;47021;51.340;12.432;2023-02-20T13:58:43;100037.19;;;16.21;48.93
61136;BME280;47021;51.340;12.432;2023-02-20T14:01:10;100065.94;;;15.67;49.96
61136;BME280;47021;51.340;12.432;2023-02-20T14:03:41;100063.69;;;15.96;49.19
61136;BME280;47021;51.340;12.432;2023-02-20T14:06:07;100042.41;;;16.46;48.42
61136;BME280;47021;51.340;12.432;2023-02-20T14:08:36;100077.03;;;15.94;49.03
61136;BME280;47021;51.340;12.432;2023-02-20T14:13:48;100085.41;;;15.98;49.82
61136;BME280;47021;51.340;12.432;2023-02-20T14:16:33;100051.00;;;15.83;49.76
61136;BME280;47021;51.340;12.432;2023-02-20T14:21:43;100044.59;;;15.86;50.26
61136;BME280;47021;51.340;12.432;2023-02-20T14:24:24;100048.19;;;15.77;50.17
61136;BME280;47021;51.340;12.432;2023-02-20T14:26:58;100064.28;;;15.66;50.40
61136;BME280;47021;51.340;12.432;2023-02-20T14:29:32;100054.56;;;15.58;51.34
61136;BME280;47021;51.340;12.432;2023-02-20T14:31:59;100039.31;;;16.10;49.90
61136;BME280;47021;51.340;12.432;2023-02-20T14:34:36;100036.72;;;16.02;50.50
61136;BME280;47021;51.340;12.432;2023-02-20T14:40:02;100036.84;;;15.76;50.76
61136;BME280;47021;51.340;12.432;2023-02-20T14:42:35;100043.13;;;15.99;50.65
61136;BME280;47021;51.340;12.432;2023-02-20T14:45:10;100036.34;;;16.05;50.13
61136;BME280;47021;51.340;12.432;2023-02-20T14:47:56;100046.56;;;16.32;49.71
61136;BME280;47021;51.340;12.432;2023-02-20T14:50:25;100051.50;;;16.35;50.23
61136;BME280;47021;51.340;12.432;2023-02-20T14:55:37;100054.31;;;16.01;50.74
61136;BME280;47021;51.340;12.432;2023-02-20T14:58:09;100049.72;;;16.19;50.22
61136;BME280;47021;51.340;12.432;2023-02-20T15:00:47;100054.16;;;16.11;50.48
61136;BME280;47021;51.340;12.432;2023-02-20T15:03:18;100051.53;;;16.11;51.04
61136;BME280;47021;51.340;12.432;2023-02-20T15:05:46;100056.44;;;15.98;51.04
61136;BME280;47021;51.340;12.432;2023-02-20T15:10:49;100059.72;;;15.84;51.36
61136;BME280;47021;51.340;12.432;2023-02-20T15:13:20;100071.91;;;15.35;53.04
61136;BME280;47021;51.340;12.432;2023-02-20T15:16:04;100070.84;;;15.53;52.70
61136;BME280;47021;51.340;12.432;2023-02-20T15:18:43;100076.06;;;15.45;53.27
61136;BME280;47021;51.340;12.432;2023-02-20T15:21:10;100082.44;;;15.85;51.95
61136;BME280;47021;51.340;12.432;2023-02-20T15:26:38;100086.50;;;15.29;53.52
61136;BME280;47021;51.340;12.432;2023-02-20T15:34:47;100087.44;;;15.12;54.65
61136;BME280;47021;51.340;12.432;2023-02-20T15:37:31;100096.28;;;15.45;53.87
61136;BME280;47021;51.340;12.432;2023-02-20T15:40:21;100088.47;;;15.27;54.21
61136;BME280;47021;51.340;12.432;2023-02-20T15:42:50;100087.81;;;15.25;53.85
61136;BME280;47021;51.340;12.432;2023-02-20T15:48:00;100090.56;;;14.90;55.12
61136;BME280;47021;51.340;12.432;2023-02-20T15:50:33;100102.28;;;15.29;54.38
61136;BME280;47021;51.340;12.432;2023-02-20T15:53:04;100098.63;;;14.89;55.13
61136;BME280;47021;51.340;12.432;2023-02-20T15:55:32;100109.59;;;15.43;54.25
61136;BME280;47021;51.340;12.432;2023-02-20T16:03:22;100108.72;;;15.01;55.32
61136;BME280;47021;51.340;12.432;2023-02-20T16:06:08;100114.66;;;15.03;55.19
61136;BME280;47021;51.340;12.432;2023-02-20T16:08:50;100118.53;;;14.91;55.63
61136;BME280;47021;51.340;12.432;2023-02-20T16:11:20;100126.81;;;15.04;55.14
61136;BME280;47021;51.340;12.432;2023-02-20T16:13:47;100107.41;;;15.31;54.76
61136;BME280;47021;51.340;12.432;2023-02-20T16:16:27;100110.22;;;15.37;54.36
61136;BME280;47021;51.340;12.432;2023-02-20T16:19:00;100101.63;;;14.94;55.55
61136;BME280;47021;51.340;12.432;2023-02-20T16:21:27;100105.09;;;14.94;55.42
61136;BME280;47021;51.340;12.432;2023-02-20T16:23:53;100088.13;;;15.22;54.13
61136;BME280;47021;51.340;12.432;2023-02-20T16:29:15;100115.59;;;14.94;55.29
61136;BME280;47021;51.340;12.432;2023-02-20T16:34:41;100124.75;;;14.90;55.03
61136;BME280;47021;51.340;12.432;2023-02-20T16:37:09;100129.31;;;14.62;56.07
61136;BME280;47021;51.340;12.432;2023-02-20T16:39:53;100135.28;;;14.47;56.52
61136;BME280;47021;51.340;12.432;2023-02-20T16:42:26;100148.28;;;14.92;55.19
61136;BME280;47021;51.340;12.432;2023-02-20T16:47:51;100149.34;;;14.81;56.08
61136;BME280;47021;51.340;12.432;2023-02-20T16:50:18;100149.31;;;14.99;55.66
61136;BME280;47021;51.340;12.432;2023-02-20T16:52:50;100158.59;;;14.85;56.25
61136;BME280;47021;51.340;12.432;2023-02-20T16:55:33;100161.44;;;14.74;56.55
61136;BME280;47021;51.340;12.432;2023-02-20T16:58:04;100167.38;;;14.76;56.70
61136;BME280;47021;51.340;12.432;2023-02-20T17:03:22;100184.38;;;13.84;59.70
61136;BME280;47021;51.340;12.432;2023-02-20T17:05:53;100169.03;;;14.06;59.58
61136;BME280;47021;51.340;12.432;2023-02-20T17:13:52;100200.53;;;14.69;57.25
61136;BME280;47021;51.340;12.432;2023-02-20T17:16:21;100193.59;;;13.88;58.91
61136;BME280;47021;51.340;12.432;2023-02-20T17:18:55;100214.22;;;14.00;58.91
61136;BME280;47021;51.340;12.432;2023-02-20T17:21:23;100214.41;;;13.72;59.31
61136;BME280;47021;51.340;12.432;2023-02-20T17:23:48;100238.66;;;13.47;58.59
61136;BME280;47021;51.340;12.432;2023-02-20T17:28:55;100222.06;;;13.56;57.37
61136;BME280;47021;51.340;12.432;2023-02-20T17:31:21;100213.97;;;13.39;56.98
61136;BME280;47021;51.340;12.432;2023-02-20T17:33:51;100212.72;;;13.34;57.69
61136;BME280;47021;51.340;12.432;2023-02-20T17:36:21;100221.34;;;13.90;55.97
61136;BME280;47021;51.340;12.432;2023-02-20T17:38:46;100203.25;;;13.23;57.39
61136;BME280;47021;51.340;12.432;2023-02-20T17:41:12;100211.41;;;13.57;56.33
61136;BME280;47021;51.340;12.432;2023-02-20T17:43:38;100210.16;;;13.61;56.30